createdAt,value
2023-04-01T00:00:21.703Z,94433.09
2023-04-01T00:01:24.708Z,94434.75
2023-04-01T00:02:27.035Z,94450.22
2023-04-01T00:03:31.872Z,94455.41
2023-04-01T00:04:34.060Z,94439.00
2023-04-01T00:05:38.307Z,94438.69
2023-04-01T00:06:40.397Z,94444.16
2023-04-01T00:07:43.208Z,94441.75
2023-04-01T00:08:45.717Z,94445.66
2023-04-01T00:09:48.980Z,94443.84
2023-04-01T00:10:52.123Z,94436.41
2023-04-01T00:11:54.944Z,94439.91
2023-04-01T00:12:56.858Z,94441.09
2023-04-01T00:13:59.701Z,94435.66
2023-04-01T00:15:02.599Z,94435.81
2023-04-01T00:16:17.570Z,94426.50
2023-04-01T00:17:22.703Z,94440.03
2023-04-01T00:18:26.488Z,94430.94
2023-04-01T00:19:30.467Z,94416.09
2023-04-01T00:20:32.290Z,94421.03
2023-04-01T00:21:36.740Z,94432.59
2023-04-01T00:22:38.580Z,94424.41
2023-04-01T00:23:41.594Z,94427.00
2023-04-01T00:24:43.521Z,94430.50
2023-04-01T00:25:48.707Z,94425.34
2023-04-01T00:26:50.715Z,94425.34
2023-04-01T00:27:53.569Z,94431.44
2023-04-01T00:28:56.140Z,94425.84
2023-04-01T00:29:58.989Z,94430.53
2023-04-01T00:31:06.074Z,94439.06
2023-04-01T00:32:09.381Z,94439.06
2023-04-01T00:33:11.734Z,94429.31
2023-04-01T00:34:14.689Z,94436.00
2023-04-01T00:35:16.644Z,94436.00
2023-04-01T00:36:22.455Z,94424.44
2023-04-01T00:37:25.931Z,94432.63
2023-04-01T00:38:28.772Z,94427.50
2023-04-01T00:39:31.075Z,94427.38
2023-04-01T00:40:36.507Z,94432.63
2023-04-01T00:41:38.468Z,94430.66
2023-04-01T00:42:41.263Z,94431.44
2023-04-01T00:43:44.285Z,94429.16
2023-04-01T00:44:50.202Z,94428.72
2023-04-01T00:45:52.798Z,94427.50
2023-04-01T00:46:55.884Z,94426.75
2023-04-01T00:48:01.092Z,94430.25
2023-04-01T00:49:04.476Z,94423.25
2023-04-01T00:50:07.601Z,94424.44
2023-04-01T00:51:13.836Z,94430.41
2023-04-01T00:52:20.012Z,94429.63
2023-04-01T00:53:25.280Z,94427.81
2023-04-01T00:54:29.693Z,94431.88
2023-04-01T00:55:35.803Z,94423.81
2023-04-01T00:56:41.308Z,94418.34
2023-04-01T00:57:46.398Z,94423.81
2023-04-01T00:58:51.921Z,94434.75
2023-04-01T00:59:56.799Z,94421.09
2023-04-01T01:01:00.983Z,94435.53
2023-04-01T01:02:04.685Z,94431.25
2023-04-01T01:03:06.680Z,94446.44
2023-04-01T01:04:22.204Z,94436.72
2023-04-01T01:05:34.414Z,94432.03
2023-04-01T01:06:53.611Z,94427.34
2023-04-01T01:08:05.298Z,94438.69
2023-04-01T01:09:27.696Z,94434.44
2023-04-01T01:10:34.289Z,94426.25
2023-04-01T01:11:43.767Z,94426.22
2023-04-01T01:12:50.363Z,94430.78
2023-04-01T01:14:04.004Z,94424.09
2023-04-01T01:15:13.212Z,94429.13
2023-04-01T01:16:22.420Z,94435.66
2023-04-01T01:17:34.080Z,94416.22
2023-04-01T01:18:42.437Z,94413.16
2023-04-01T01:20:00.458Z,94416.22
2023-04-01T01:21:31.945Z,94413.69
2023-04-01T01:22:46.921Z,94423.22
2023-04-01T01:24:11.788Z,94421.94
2023-04-01T01:25:33.375Z,94416.50
2023-04-01T01:26:50.561Z,94417.13
2023-04-01T01:28:00.360Z,94420.44
2023-04-01T01:29:14.073Z,94408.31
2023-04-01T01:30:44.969Z,94406.31
2023-04-01T01:31:58.452Z,94416.19
2023-04-01T01:33:15.567Z,94419.22
2023-04-01T01:34:24.802Z,94408.63
2023-04-01T01:35:32.632Z,94416.38
2023-04-01T01:36:36.576Z,94407.09
2023-04-01T01:37:43.922Z,94416.06
2023-04-01T01:38:49.439Z,94410.59
2023-04-01T01:39:55.575Z,94403.75
2023-04-01T01:41:00.516Z,94408.00
2023-04-01T01:42:06.846Z,94404.06
2023-04-01T01:43:14.170Z,94400.75
2023-04-01T01:44:17.542Z,94406.31
2023-04-01T01:45:23.817Z,94406.94
2023-04-01T01:46:30.340Z,94405.56
2023-04-01T01:47:34.951Z,94408.88
2023-04-01T01:48:40.727Z,94410.09
2023-04-01T01:49:44.505Z,94401.91
2023-04-01T01:50:50.482Z,94404.94
2023-04-01T01:51:53.603Z,94402.16
2023-04-01T01:53:04.006Z,94407.50
2023-04-01T01:54:06.875Z,94415.69
2023-04-01T01:55:27.384Z,94404.78
2023-04-01T01:56:32.605Z,94406.88
2023-04-01T01:57:37.565Z,94413.69
2023-04-01T01:58:46.201Z,94406.25
2023-04-01T01:59:55.176Z,94408.53
2023-04-01T02:01:05.142Z,94410.94
2023-04-01T02:02:09.435Z,94410.03
2023-04-01T02:03:14.503Z,94403.19
2023-04-01T02:04:18.318Z,94409.44
2023-04-01T02:05:25.553Z,94412.47
2023-04-01T02:06:35.897Z,94404.72
2023-04-01T02:07:40.872Z,94410.03
2023-04-01T02:08:47.900Z,94408.53
2023-04-01T02:09:49.980Z,94412.34
2023-04-01T02:10:58.539Z,94404.16
2023-04-01T02:12:06.746Z,94402.16
2023-04-01T02:13:21.248Z,94415.50
2023-04-01T02:14:26.377Z,94419.19
2023-04-01T02:15:34.211Z,94419.81
2023-04-01T02:16:41.534Z,94411.19
2023-04-01T02:17:47.312Z,94411.94
2023-04-01T02:18:51.267Z,94413.72
2023-04-01T02:19:57.998Z,94408.56
2023-04-01T02:21:01.701Z,94419.81
2023-04-01T02:22:11.129Z,94426.03
2023-04-01T02:23:14.685Z,94413.75
2023-04-01T02:24:17.868Z,94419.22
2023-04-01T02:25:23.566Z,94430.59
2023-04-01T02:26:28.305Z,94417.84
2023-04-01T02:27:31.342Z,94428.00
2023-04-01T02:28:35.400Z,94418.28
2023-04-01T02:29:37.835Z,94415.84
2023-04-01T02:30:45.705Z,94426.78
2023-04-01T02:31:51.555Z,94425.59
2023-04-01T02:32:56.369Z,94424.06
2023-04-01T02:33:58.752Z,94419.66
2023-04-01T02:35:04.331Z,94423.19
2023-04-01T02:36:07.159Z,94429.72
2023-04-01T02:37:13.469Z,94413.75
2023-04-01T02:38:16.746Z,94425.41
2023-04-01T02:39:20.372Z,94428.59
2023-04-01T02:40:22.697Z,94433.47
2023-04-01T02:41:25.798Z,94424.53
2023-04-01T02:42:27.722Z,94429.19
2023-04-01T02:43:30.786Z,94427.25
2023-04-01T02:44:32.909Z,94428.91
2023-04-01T02:45:35.851Z,94434.66
2023-04-01T02:46:38.643Z,94437.84
2023-04-01T02:47:41.726Z,94430.41
2023-04-01T02:48:44.096Z,94435.56
2023-04-01T02:49:46.997Z,94429.34
2023-04-01T02:50:48.926Z,94427.38
2023-04-01T02:51:52.831Z,94427.06
2023-04-01T02:52:57.121Z,94427.81
2023-04-01T02:53:59.993Z,94429.78
2023-04-01T02:55:02.251Z,94432.50
2023-04-01T02:56:06.508Z,94444.19
2023-04-01T02:57:08.732Z,94432.06
2023-04-01T02:58:11.726Z,94448.03
2023-04-01T02:59:13.786Z,94436.31
2023-04-01T03:00:18.402Z,94438.28
2023-04-01T03:01:20.633Z,94439.50
2023-04-01T03:02:23.634Z,94447.69
2023-04-01T03:03:26.292Z,94448.88
2023-04-01T03:04:29.180Z,94441.94
2023-04-01T03:05:31.705Z,94444.97
2023-04-01T03:06:34.830Z,94441.03
2023-04-01T03:07:36.745Z,94442.25
2023-04-01T03:08:41.180Z,94445.56
2023-04-01T03:09:43.275Z,94433.72
2023-04-01T03:10:46.093Z,94439.19
2023-04-01T03:11:47.957Z,94445.09
2023-04-01T03:12:51.040Z,94427.47
2023-04-01T03:13:53.092Z,94434.31
2023-04-01T03:14:56.408Z,94444.34
2023-04-01T03:15:59.120Z,94440.38
2023-04-01T03:17:02.199Z,94434.16
2023-04-01T03:18:04.448Z,94440.38
2023-04-01T03:19:07.600Z,94437.22
2023-04-01T03:20:11.768Z,94441.72
2023-04-01T03:21:16.651Z,94445.84
2023-04-01T03:22:21.829Z,94436.72
2023-04-01T03:23:25.282Z,94439.56
2023-04-01T03:24:28.690Z,94439.16
2023-04-01T03:25:32.044Z,94446.09
2023-04-01T03:26:34.669Z,94442.31
2023-04-01T03:27:37.617Z,94439.16
2023-04-01T03:28:39.758Z,94442.63
2023-04-01T03:29:43.078Z,94450.38
2023-04-01T03:30:46.299Z,94439.47
2023-04-01T03:31:48.274Z,94452.47
2023-04-01T03:32:51.511Z,94456.53
2023-04-01T03:33:53.672Z,94464.28
2023-04-01T03:34:56.552Z,94458.50
2023-04-01T03:35:59.046Z,94471.25
2023-04-01T03:37:01.941Z,94456.84
2023-04-01T03:38:04.302Z,94457.19
2023-04-01T03:39:07.401Z,94453.97
2023-04-01T03:40:17.701Z,94459.44
2023-04-01T03:41:20.707Z,94447.59
2023-04-01T03:42:23.096Z,94447.91
2023-04-01T03:43:26.704Z,94454.13
2023-04-01T03:44:32.455Z,94454.44
2023-04-01T03:45:35.470Z,94442.31
2023-04-01T03:46:37.760Z,94456.28
2023-04-01T03:48:43.908Z,94457.78
2023-04-01T03:49:46.744Z,94452.22
2023-04-01T03:50:48.711Z,94449.91
2023-04-01T03:51:51.589Z,94453.44
2023-04-01T03:52:53.875Z,94449.91
2023-04-01T03:53:56.821Z,94456.91
2023-04-01T03:54:58.714Z,94454.94
2023-04-01T03:56:07.062Z,94451.00
2023-04-01T03:57:12.037Z,94449.78
2023-04-01T03:58:14.332Z,94460.41
2023-04-01T03:59:17.662Z,94455.69
2023-04-01T04:00:20.364Z,94456.44
2023-04-01T04:01:30.506Z,94451.56
2023-04-01T04:02:32.961Z,94466.75
2023-04-01T04:03:36.092Z,94451.13
2023-04-01T04:04:38.001Z,94457.03
2023-04-01T04:05:48.884Z,94454.63
2023-04-01T04:06:52.149Z,94464.78
2023-04-01T04:07:57.122Z,94466.44
2023-04-01T04:08:59.477Z,94471.16
2023-04-01T04:10:04.318Z,94467.63
2023-04-01T04:11:08.049Z,94456.28
2023-04-01T04:12:13.116Z,94457.63
2023-04-01T04:13:14.994Z,94461.25
2023-04-01T04:14:25.874Z,94461.25
2023-04-01T04:15:27.811Z,94464.28
2023-04-01T04:16:30.869Z,94458.84
2023-04-01T04:17:36.570Z,94459.28
2023-04-01T04:18:39.792Z,94467.03
2023-04-01T04:19:41.884Z,94461.84
2023-04-01T04:20:48.106Z,94470.34
2023-04-01T04:21:50.936Z,94464.91
2023-04-01T04:22:53.390Z,94468.69
2023-04-01T04:23:56.227Z,94470.69
2023-04-01T04:24:58.093Z,94468.28
2023-04-01T04:26:02.739Z,94460.84
2023-04-01T04:27:07.443Z,94462.81
2023-04-01T04:28:11.907Z,94469.03
2023-04-01T04:29:15.240Z,94467.06
2023-04-01T04:30:17.821Z,94465.09
2023-04-01T04:31:22.323Z,94467.63
2023-04-01T04:32:25.498Z,94469.91
2023-04-01T04:33:28.889Z,94467.63
2023-04-01T04:34:31.057Z,94471.91
2023-04-01T04:35:35.109Z,94470.34
2023-04-01T04:36:37.526Z,94472.47
2023-04-01T04:37:40.560Z,94474.38
2023-04-01T04:38:42.735Z,94468.78
2023-04-01T04:39:45.730Z,94460.59
2023-04-01T04:40:48.177Z,94481.69
2023-04-01T04:41:51.504Z,94483.06
2023-04-01T04:42:57.556Z,94482.44
2023-04-01T04:44:00.550Z,94482.13
2023-04-01T04:45:02.391Z,94475.44
2023-04-01T04:46:07.161Z,94472.72
2023-04-01T04:47:09.196Z,94475.16
2023-04-01T04:48:17.185Z,94475.44
2023-04-01T04:49:19.896Z,94469.97
2023-04-01T04:50:22.829Z,94473.03
2023-04-01T04:51:25.401Z,94471.53
2023-04-01T04:52:28.753Z,94473.03
2023-04-01T04:53:31.514Z,94464.22
2023-04-01T04:54:34.312Z,94467.81
2023-04-01T04:55:37.819Z,94474.03
2023-04-01T04:57:19.208Z,94470.75
2023-04-01T04:58:29.918Z,94471.38
2023-04-01T04:59:33.543Z,94475.75
2023-04-01T05:00:51.819Z,94473.66
2023-04-01T05:02:03.302Z,94475.22
2023-04-01T05:03:06.270Z,94479.13
2023-04-01T05:04:09.178Z,94475.97
2023-04-01T05:05:11.527Z,94468.53
2023-04-01T05:06:21.000Z,94475.81
2023-04-01T05:07:25.302Z,94476.13
2023-04-01T05:08:28.216Z,94474.31
2023-04-01T05:09:30.024Z,94479.44
2023-04-01T05:10:33.026Z,94478.69
2023-04-01T05:11:35.058Z,94483.06
2023-04-01T05:12:39.757Z,94485.81
2023-04-01T05:13:45.539Z,94476.97
2023-04-01T05:14:48.369Z,94480.03
2023-04-01T05:15:50.244Z,94476.84
2023-04-01T05:16:53.329Z,94480.78
2023-04-01T05:17:55.386Z,94481.22
2023-04-01T05:19:01.050Z,94469.97
2023-04-01T05:20:03.395Z,94479.72
2023-04-01T05:21:08.548Z,94478.50
2023-04-01T05:22:10.693Z,94470.94
2023-04-01T05:23:14.049Z,94477.94
2023-04-01T05:24:16.007Z,94480.66
2023-04-01T05:25:19.427Z,94477.31
2023-04-01T05:26:21.302Z,94473.66
2023-04-01T05:27:24.220Z,94477.94
2023-04-01T05:28:26.239Z,94471.25
2023-04-01T05:29:32.260Z,94475.50
2023-04-01T05:30:43.064Z,94479.81
2023-04-01T05:31:59.675Z,94477.56
2023-04-01T05:33:02.553Z,94474.38
2023-04-01T05:34:04.671Z,94477.56
2023-04-01T05:35:08.673Z,94486.50
2023-04-01T05:36:12.428Z,94480.91
2023-04-01T05:37:15.384Z,94480.03
2023-04-01T05:38:17.233Z,94477.31
2023-04-01T05:39:20.183Z,94463.19
2023-04-01T05:40:23.022Z,94481.41
2023-04-01T05:41:26.147Z,94473.22
2023-04-01T05:42:28.104Z,94472.78
2023-04-01T05:43:31.518Z,94466.38
2023-04-01T05:44:41.252Z,94474.44
2023-04-01T05:45:44.049Z,94473.22
2023-04-01T05:46:45.935Z,94470.34
2023-04-01T05:47:57.805Z,94477.34
2023-04-01T05:48:59.713Z,94479.34
2023-04-01T05:50:03.490Z,94477.69
2023-04-01T05:51:06.167Z,94478.94
2023-04-01T05:52:10.429Z,94474.41
2023-04-01T05:53:12.739Z,94482.16
2023-04-01T05:54:19.255Z,94473.50
2023-04-01T05:55:21.355Z,94473.50
2023-04-01T05:56:25.388Z,94481.38
2023-04-01T05:57:27.574Z,94478.22
2023-04-01T05:58:30.505Z,94479.88
2023-04-01T05:59:32.491Z,94477.47
2023-04-01T06:00:37.266Z,94485.06
2023-04-01T06:01:39.488Z,94477.53
2023-04-01T06:02:43.028Z,94479.94
2023-04-01T06:03:45.664Z,94482.38
2023-04-01T06:04:49.107Z,94483.47
2023-04-01T06:05:51.326Z,94478.31
2023-04-01T06:06:54.341Z,94480.59
2023-04-01T06:08:00.360Z,94481.81
2023-04-01T06:09:14.244Z,94482.88
2023-04-01T06:10:22.176Z,94485.03
2023-04-01T06:11:36.848Z,94483.81
2023-04-01T06:12:50.995Z,94478.47
2023-04-01T06:14:09.264Z,94487.59
2023-04-01T06:15:26.427Z,94483.16
2023-04-01T06:16:37.555Z,94485.44
2023-04-01T06:17:54.750Z,94485.00
2023-04-01T06:19:12.048Z,94478.31
2023-04-01T06:20:28.936Z,94483.91
2023-04-01T06:21:46.750Z,94483.66
2023-04-01T06:23:12.868Z,94481.84
2023-04-01T06:24:35.416Z,94478.25
2023-04-01T06:25:51.264Z,94476.31
2023-04-01T06:27:02.606Z,94477.09
2023-04-01T06:28:41.645Z,94479.22
2023-04-01T06:29:56.564Z,94480.13
2023-04-01T06:31:06.929Z,94477.47
2023-04-01T06:32:32.288Z,94469.72
2023-04-01T06:33:52.607Z,94467.50
2023-04-01T06:35:18.196Z,94469.31
2023-04-01T06:36:41.180Z,94468.09
2023-04-01T06:38:11.005Z,94475.44
2023-04-01T06:39:29.521Z,94475.00
2023-04-01T06:40:51.504Z,94459.66
2023-04-01T06:42:15.954Z,94467.09
2023-04-01T06:43:26.722Z,94471.50
2023-04-01T06:45:01.603Z,94480.63
2023-04-01T06:46:45.723Z,94478.22
2023-04-01T06:48:48.523Z,94478.81
2023-04-01T06:50:22.642Z,94479.88
2023-04-01T06:51:52.580Z,94476.22
2023-04-01T06:53:18.969Z,94482.16
2023-04-01T06:54:35.494Z,94483.06
2023-04-01T06:55:44.108Z,94482.00
2023-04-01T06:57:03.070Z,94484.44
2023-04-01T06:58:11.921Z,94493.09
2023-04-01T06:59:19.349Z,94476.34
2023-04-01T07:00:30.980Z,94482.44
2023-04-01T07:01:39.350Z,94495.22
2023-04-01T07:02:46.457Z,94485.16
2023-04-01T07:03:56.323Z,94497.91
2023-04-01T07:05:01.321Z,94483.97
2023-04-01T07:06:06.274Z,94482.31
2023-04-01T07:07:19.422Z,94475.91
2023-04-01T07:08:32.487Z,94487.47
2023-04-01T07:09:40.846Z,94489.16
2023-04-01T07:11:28.195Z,94492.78
2023-04-01T07:12:55.189Z,94493.09
2023-04-01T07:14:32.440Z,94481.41
2023-04-01T07:15:40.490Z,94478.97
2023-04-01T07:16:50.218Z,94486.25
2023-04-01T07:17:56.686Z,94488.84
2023-04-01T07:19:06.044Z,94464.84
2023-04-01T07:20:29.410Z,94499.81
2023-04-01T07:21:36.792Z,94474.84
2023-04-01T07:22:51.781Z,94485.19
2023-04-01T07:24:03.274Z,94478.94
2023-04-01T07:25:16.620Z,94472.88
2023-04-01T07:26:23.922Z,94492.00
2023-04-01T07:27:35.840Z,94489.91
2023-04-01T07:28:37.851Z,94485.50
2023-04-01T07:29:53.177Z,94498.84
2023-04-01T07:31:08.544Z,94507.06
2023-04-01T07:32:30.177Z,94490.03
2023-04-01T07:33:40.954Z,94511.16
2023-04-01T07:34:57.853Z,94500.69
2023-04-01T07:36:06.878Z,94497.03
2023-04-01T07:37:14.303Z,94474.53
2023-04-01T07:38:27.188Z,94491.25
2023-04-01T07:39:39.186Z,94500.50
2023-04-01T07:41:05.978Z,94504.59
2023-04-01T07:42:16.978Z,94506.16
2023-04-01T07:43:42.516Z,94512.03
2023-04-01T07:45:07.017Z,94494.25
2023-04-01T07:46:20.629Z,94493.78
2023-04-01T07:47:45.741Z,94513.22
2023-04-01T07:48:56.628Z,94507.16
2023-04-01T07:50:10.625Z,94498.47
2023-04-01T07:51:19.396Z,94507.28
2023-04-01T07:52:29.141Z,94510.00
2023-04-01T07:53:44.332Z,94507.91
2023-04-01T07:54:51.113Z,94498.63
2023-04-01T07:56:04.168Z,94511.84
2023-04-01T07:57:16.820Z,94513.03
2023-04-01T07:58:32.781Z,94501.50
2023-04-01T07:59:47.152Z,94518.34
2023-04-01T08:01:12.676Z,94506.53
2023-04-01T08:02:31.261Z,94503.78
2023-04-01T08:03:44.776Z,94488.75
2023-04-01T08:05:02.886Z,94489.06
2023-04-01T08:06:16.579Z,94522.66
2023-04-01T08:07:21.930Z,94504.44
2023-04-01T08:09:04.005Z,94501.84
2023-04-01T08:10:34.955Z,94496.53
2023-04-01T08:12:06.438Z,94508.25
2023-04-01T08:13:39.570Z,94495.81
2023-04-01T08:15:14.600Z,94491.69
2023-04-01T08:16:25.414Z,94489.13
2023-04-01T08:17:37.514Z,94496.44
2023-04-01T08:18:49.104Z,94495.06
2023-04-01T08:20:02.935Z,94492.19
2023-04-01T08:21:16.704Z,94494.78
2023-04-01T08:22:25.709Z,94494.63
2023-04-01T08:23:32.936Z,94482.75
2023-04-01T08:24:47.762Z,94497.06
2023-04-01T08:26:04.482Z,94487.03
2023-04-01T08:27:16.303Z,94497.19
2023-04-01T08:28:25.070Z,94490.34
2023-04-01T08:29:37.952Z,94496.75
2023-04-01T08:30:45.855Z,94501.31
2023-04-01T08:31:56.189Z,94497.97
2023-04-01T08:33:02.675Z,94501.28
2023-04-01T08:34:15.728Z,94497.97
2023-04-01T08:35:28.900Z,94494.78
2023-04-01T08:36:38.303Z,94495.69
2023-04-01T08:37:51.450Z,94489.47
2023-04-01T08:39:01.920Z,94492.34
2023-04-01T08:40:28.705Z,94484.00
2023-04-01T08:42:11.294Z,94496.31
2023-04-01T08:43:48.130Z,94485.94
2023-04-01T08:45:17.827Z,94492.03
2023-04-01T08:46:46.442Z,94471.19
2023-04-01T08:48:09.863Z,94489.16
2023-04-01T08:49:34.264Z,94491.59
2023-04-01T08:51:10.105Z,94482.75
2023-04-01T08:52:30.845Z,94481.84
2023-04-01T08:53:51.549Z,94485.50
2023-04-01T08:55:24.609Z,94476.53
2023-04-01T08:56:57.613Z,94477.44
2023-04-01T08:58:30.550Z,94478.81
2023-04-01T09:00:04.555Z,94481.69
2023-04-01T09:01:43.759Z,94465.56
2023-04-01T09:03:44.542Z,94459.47
2023-04-01T09:05:09.677Z,94469.97
2023-04-01T09:06:27.546Z,94465.38
2023-04-01T09:07:42.365Z,94459.91
2023-04-01T09:09:04.170Z,94459.16
2023-04-01T09:10:26.536Z,94465.38
2023-04-01T09:11:45.054Z,94475.59
2023-04-01T09:13:28.236Z,94473.47
2023-04-01T09:14:57.855Z,94473.47
2023-04-01T09:16:28.641Z,94476.22
2023-04-01T09:18:04.185Z,94487.31
2023-04-01T09:19:21.693Z,94474.72
2023-04-01T09:20:53.411Z,94482.75
2023-04-01T09:22:11.459Z,94466.63
2023-04-01T09:23:42.835Z,94469.06
2023-04-01T09:25:17.223Z,94470.88
2023-04-01T09:26:41.234Z,94471.19
2023-04-01T09:27:51.324Z,94464.81
2023-04-01T09:29:09.341Z,94458.41
2023-04-01T09:30:43.458Z,94464.81
2023-04-01T09:32:12.206Z,94473.16
2023-04-01T09:34:07.948Z,94476.66
2023-04-01T09:35:42.214Z,94464.81
2023-04-01T09:36:48.555Z,94458.41
2023-04-01T09:38:06.417Z,94472.41
2023-04-01T09:39:28.969Z,94447.75
2023-04-01T09:40:39.716Z,94455.97
2023-04-01T09:42:00.263Z,94455.06
2023-04-01T09:43:27.426Z,94458.41
2023-04-01T09:44:35.346Z,94455.97
2023-04-01T09:45:57.347Z,94454.44
2023-04-01T09:47:17.320Z,94458.72
2023-04-01T09:48:43.950Z,94468.59
2023-04-01T09:50:01.920Z,94455.53
2023-04-01T09:51:15.849Z,94471.78
2023-04-01T09:52:30.749Z,94457.03
2023-04-01T09:54:00.380Z,94450.81
2023-04-01T09:55:58.370Z,94446.84
2023-04-01T09:57:29.740Z,94451.25
2023-04-01T09:59:09.668Z,94448.38
2023-04-01T10:01:03.373Z,94457.66
2023-04-01T10:02:39.529Z,94457.47
2023-04-01T10:04:26.136Z,94447.44
2023-04-01T10:06:00.787Z,94459.91
2023-04-01T10:07:46.375Z,94462.06
2023-04-01T10:09:33.732Z,94456.75
2023-04-01T10:11:03.596Z,94460.22
2023-04-01T10:12:49.370Z,94456.59
2023-04-01T10:14:18.130Z,94459.66
2023-04-01T10:16:02.184Z,94455.69
2023-04-01T10:17:37.031Z,94457.81
2023-04-01T10:19:10.561Z,94453.56
2023-04-01T10:20:29.372Z,94455.69
2023-04-01T10:22:01.920Z,94455.97
2023-04-01T10:23:33.222Z,94461.16
2023-04-01T10:25:20.857Z,94458.88
2023-04-01T10:26:54.508Z,94464.34
2023-04-01T10:29:04.903Z,94454.47
2023-04-01T10:30:54.478Z,94465.28
2023-04-01T10:32:31.548Z,94470.13
2023-04-01T10:33:49.349Z,94450.06
2023-04-01T10:35:12.532Z,94462.22
2023-04-01T10:36:43.041Z,94456.59
2023-04-01T10:38:47.678Z,94459.78
2023-04-01T10:40:19.602Z,94467.56
2023-04-01T10:42:06.652Z,94470.75
2023-04-01T10:43:42.799Z,94469.53
2023-04-01T10:45:28.806Z,94469.38
2023-04-01T10:46:56.058Z,94465.41
2023-04-01T10:48:15.202Z,94463.91
2023-04-01T10:49:50.715Z,94492.78
2023-04-01T10:51:13.555Z,94477.91
2023-04-01T10:52:48.682Z,94459.03
2023-04-01T10:54:22.527Z,94500.56
2023-04-01T10:56:13.510Z,94474.09
2023-04-01T10:58:00.984Z,94484.56
2023-04-01T10:59:45.034Z,94489.16
2023-04-01T11:01:40.973Z,94478.22
2023-04-01T11:04:07.819Z,94487.47
2023-04-01T11:05:54.554Z,94484.56
2023-04-01T11:07:34.152Z,94480.03
2023-04-01T11:09:26.522Z,94504.22
2023-04-01T11:11:10.286Z,94490.34
2023-04-01T11:12:43.838Z,94491.91
2023-04-01T11:14:16.156Z,94475.47
2023-04-01T11:15:56.841Z,94497.50
2023-04-01T11:17:37.077Z,94481.56
2023-04-01T11:19:20.550Z,94487.19
2023-04-01T11:20:53.353Z,94486.44
2023-04-01T11:22:11.217Z,94494.78
2023-04-01T11:23:45.435Z,94483.38
2023-04-01T11:25:14.027Z,94504.34
2023-04-01T11:26:35.835Z,94499.50
2023-04-01T11:28:10.251Z,94508.94
2023-04-01T11:29:58.812Z,94518.63
2023-04-01T11:31:26.789Z,94509.06
2023-04-01T11:32:41.285Z,94513.16
2023-04-01T11:33:50.487Z,94510.09
2023-04-01T11:35:05.099Z,94511.78
2023-04-01T11:36:20.693Z,94511.31
2023-04-01T11:37:36.899Z,94507.34
2023-04-01T11:39:13.332Z,94521.66
2023-04-01T11:40:41.693Z,94508.59
2023-04-01T11:42:22.725Z,94509.03
2023-04-01T11:44:18.823Z,94523.94
2023-04-01T11:45:41.574Z,94520.72
2023-04-01T11:47:06.481Z,94508.28
2023-04-01T11:48:32.160Z,94508.28
2023-04-01T11:50:01.912Z,94502.34
2023-04-01T11:51:32.745Z,94503.44
2023-04-01T11:52:55.898Z,94508.28
2023-04-01T11:54:06.371Z,94505.84
2023-04-01T11:55:26.029Z,94497.97
2023-04-01T11:56:40.819Z,94503.56
2023-04-01T11:58:00.100Z,94509.78
2023-04-01T11:59:33.943Z,94494.59
2023-04-01T12:01:11.569Z,94500.50
2023-04-01T12:02:22.982Z,94511.63
2023-04-01T12:03:49.150Z,94498.81
2023-04-01T12:05:13.671Z,94502.47
2023-04-01T12:06:22.221Z,94500.81
2023-04-01T12:07:47.662Z,94503.41
2023-04-01T12:08:58.050Z,94502.19
2023-04-01T12:10:14.643Z,94498.25
2023-04-01T12:11:25.058Z,94496.44
2023-04-01T12:12:39.062Z,94488.84
2023-04-01T12:13:49.712Z,94494.31
2023-04-01T12:15:05.198Z,94493.41
2023-04-01T12:16:27.554Z,94506.47
2023-04-01T12:17:38.828Z,94497.81
2023-04-01T12:18:48.724Z,94500.41
2023-04-01T12:19:59.227Z,94499.16
2023-04-01T12:21:10.524Z,94502.34
2023-04-01T12:22:33.928Z,94504.00
2023-04-01T12:24:03.864Z,94499.31
2023-04-01T12:25:24.815Z,94498.69
2023-04-01T12:26:43.127Z,94498.22
2023-04-01T12:28:01.618Z,94500.34
2023-04-01T12:29:23.615Z,94493.97
2023-04-01T12:30:55.399Z,94495.78
2023-04-01T12:32:06.817Z,94500.94
2023-04-01T12:33:42.566Z,94500.06
2023-04-01T12:34:58.944Z,94489.13
2023-04-01T12:36:11.834Z,94515.41
2023-04-01T12:37:21.541Z,94503.09
2023-04-01T12:38:33.549Z,94495.34
2023-04-01T12:40:08.261Z,94502.16
2023-04-01T12:41:16.405Z,94500.34
2023-04-01T12:42:32.409Z,94502.91
2023-04-01T12:44:07.530Z,94507.78
2023-04-01T12:45:40.995Z,94507.66
2023-04-01T12:47:02.122Z,94509.78
2023-04-01T12:48:32.601Z,94504.59
2023-04-01T12:49:59.953Z,94503.84
2023-04-01T12:51:52.173Z,94518.72
2023-04-01T12:53:12.357Z,94521.03
2023-04-01T12:54:43.285Z,94505.84
2023-04-01T12:55:46.577Z,94501.88
2023-04-01T12:57:00.047Z,94503.97
2023-04-01T12:58:45.952Z,94498.81
2023-04-01T13:00:06.094Z,94509.78
2023-04-01T13:01:47.051Z,94506.16
2023-04-01T13:03:07.349Z,94506.75
2023-04-01T13:04:36.814Z,94514.03
2023-04-01T13:05:55.375Z,94508.56
2023-04-01T13:07:15.648Z,94516.47
2023-04-01T13:08:29.702Z,94515.09
2023-04-01T13:09:42.302Z,94521.34
2023-04-01T13:11:01.358Z,94517.97
2023-04-01T13:12:20.412Z,94517.09
2023-04-01T13:13:42.982Z,94502.19
2023-04-01T13:15:14.439Z,94519.34
2023-04-01T13:16:23.723Z,94522.81
2023-04-01T13:17:32.964Z,94528.56
2023-04-01T13:18:48.312Z,94524.34
2023-04-01T13:20:06.164Z,94521.31
2023-04-01T13:21:17.012Z,94522.69
2023-04-01T13:22:26.084Z,94528.16
2023-04-01T13:23:56.996Z,94529.22
2023-04-01T13:25:08.257Z,94542.91
2023-04-01T13:26:19.313Z,94548.38
2023-04-01T13:27:27.607Z,94530.13
2023-04-01T13:28:34.688Z,94537.44
2023-04-01T13:29:40.696Z,94547.75
2023-04-01T13:30:49.289Z,94542.44
2023-04-01T13:32:13.085Z,94522.97
2023-04-01T13:33:22.127Z,94530.88
2023-04-01T13:34:39.964Z,94543.19
2023-04-01T13:35:50.941Z,94518.13
2023-04-01T13:37:05.583Z,94540.31
2023-04-01T13:38:27.151Z,94522.66
2023-04-01T13:39:38.055Z,94527.22
2023-04-01T13:41:02.154Z,94524.50
2023-04-01T13:42:16.914Z,94530.75
2023-04-01T13:43:24.557Z,94536.34
2023-04-01T13:44:36.247Z,94534.66
2023-04-01T13:45:48.767Z,94523.41
2023-04-01T13:47:11.302Z,94519.50
2023-04-01T13:48:35.986Z,94532.25
2023-04-01T13:50:19.148Z,94525.88
2023-04-01T13:51:54.677Z,94530.44
2023-04-01T13:53:13.219Z,94528.03
2023-04-01T13:54:36.003Z,94514.81
2023-04-01T13:55:54.506Z,94531.66
2023-04-01T13:57:11.812Z,94529.25
2023-04-01T13:58:45.936Z,94525.75
2023-04-01T14:00:19.019Z,94533.22
2023-04-01T14:01:33.567Z,94521.66
2023-04-01T14:03:16.105Z,94530.47
2023-04-01T14:04:42.852Z,94526.19
2023-04-01T14:05:53.786Z,94527.75
2023-04-01T14:07:18.400Z,94527.75
2023-04-01T14:08:32.359Z,94539.88
2023-04-01T14:09:47.746Z,94520.09
2023-04-01T14:11:01.004Z,94535.47
2023-04-01T14:12:08.439Z,94527.44
2023-04-01T14:13:19.889Z,94531.97
2023-04-01T14:14:37.439Z,94528.31
2023-04-01T14:16:09.674Z,94527.13
2023-04-01T14:17:40.317Z,94531.34
2023-04-01T14:19:00.540Z,94518.59
2023-04-01T14:20:24.685Z,94533.97
2023-04-01T14:21:34.738Z,94523.78
2023-04-01T14:22:43.839Z,94533.22
2023-04-01T14:24:05.186Z,94529.41
2023-04-01T14:25:39.360Z,94533.34
2023-04-01T14:27:18.651Z,94535.63
2023-04-01T14:28:31.711Z,94531.34
2023-04-01T14:29:41.710Z,94532.72
2023-04-01T14:31:04.849Z,94535.00
2023-04-01T14:32:13.779Z,94530.28
2023-04-01T14:33:29.429Z,94529.53
2023-04-01T14:34:52.646Z,94530.44